地図

経路データ

SID SEASON NUMBER BASIN SUBBASIN NAME ISO_TIME NATURE LAT LON WMO_WIND WMO_PRES WMO_AGENCY TRACK_TYPE DIST2LAND LANDFALL IFLAG USA_AGENCY USA_ATCF_ID USA_LAT USA_LON USA_RECORD USA_STATUS USA_WIND USA_PRES USA_SSHS USA_R34_NE USA_R34_SE USA_R34_SW USA_R34_NW USA_R50_NE USA_R50_SE USA_R50_SW USA_R50_NW USA_R64_NE USA_R64_SE USA_R64_SW USA_R64_NW USA_POCI USA_ROCI USA_RMW USA_EYE TOKYO_LAT TOKYO_LON TOKYO_GRADE TOKYO_WIND TOKYO_PRES TOKYO_R50_DIR TOKYO_R50_LONG TOKYO_R50_SHORT TOKYO_R30_DIR TOKYO_R30_LONG TOKYO_R30_SHORT TOKYO_LAND CMA_LAT CMA_LON CMA_CAT CMA_WIND CMA_PRES HKO_LAT HKO_LON HKO_CAT HKO_WIND HKO_PRES NEWDELHI_LAT NEWDELHI_LON NEWDELHI_GRADE NEWDELHI_WIND NEWDELHI_PRES NEWDELHI_CI NEWDELHI_DP NEWDELHI_POCI REUNION_LAT REUNION_LON REUNION_TYPE REUNION_WIND REUNION_PRES REUNION_TNUM REUNION_CI REUNION_RMW REUNION_R34_NE REUNION_R34_SE REUNION_R34_SW REUNION_R34_NW REUNION_R50_NE REUNION_R50_SE REUNION_R50_SW REUNION_R50_NW REUNION_R64_NE REUNION_R64_SE REUNION_R64_SW REUNION_R64_NW BOM_LAT BOM_LON BOM_TYPE BOM_WIND BOM_PRES BOM_TNUM BOM_CI BOM_RMW BOM_R34_NE BOM_R34_SE BOM_R34_SW BOM_R34_NW BOM_R50_NE BOM_R50_SE BOM_R50_SW BOM_R50_NW BOM_R64_NE BOM_R64_SE BOM_R64_SW BOM_R64_NW BOM_ROCI BOM_POCI BOM_EYE BOM_POS_METHOD BOM_PRES_METHOD NADI_LAT NADI_LON NADI_CAT NADI_WIND NADI_PRES WELLINGTON_LAT WELLINGTON_LON WELLINGTON_WIND WELLINGTON_PRES DS824_LAT DS824_LON DS824_STAGE DS824_WIND DS824_PRES TD9636_LAT TD9636_LON TD9636_STAGE TD9636_WIND TD9636_PRES TD9635_LAT TD9635_LON TD9635_WIND TD9635_PRES TD9635_ROCI NEUMANN_LAT NEUMANN_LON NEUMANN_CLASS NEUMANN_WIND NEUMANN_PRES MLC_LAT MLC_LON MLC_CLASS MLC_WIND MLC_PRES USA_GUST BOM_GUST BOM_GUST_PER REUNION_GUST REUNION_GUST_PER USA_SEAHGT USA_SEARAD_NE USA_SEARAD_SE USA_SEARAD_SW USA_SEARAD_NW STORM_SPEED STORM_DIR
1974235N14235 1974 87 EP MM KIRSTEN 1974-08-22 12:00:00 TS 13.7000 -124.900 25 hurdat_epa main 1819 1819 O________OO___ hurdat_epa EP111974 13.7000 -124.900 TD 25 -1 13.7000 -124.900 TC 25 13.7000 -124.900 1 30 17 307
1974235N14235 1974 87 EP MM KIRSTEN 1974-08-22 15:00:00 TS 14.2112 -125.608 main 1835 1835 P________PP___ EP111974 14.2155 -125.614 TD 32 -1 14.2155 -125.614 TC 32 14.1939 -125.585 1 33 17 306
1974235N14235 1974 87 EP MM KIRSTEN 1974-08-22 18:00:00 TS 14.6939 -126.291 40 hurdat_epa main 1855 1855 O________OP___ hurdat_epa EP111974 14.7000 -126.300 TS 40 0 14.7000 -126.300 TC 40 14.6694 -126.257 1 37 16 306
1974235N14235 1974 87 EP MM KIRSTEN 1974-08-22 21:00:00 TS 15.1259 -126.924 main 1868 1865 P________PP___ EP111974 15.1298 -126.930 TS 42 0 15.1298 -126.930 TC 42 15.1102 -126.901 1 41 14 305
1974235N14235 1974 87 EP MM KIRSTEN 1974-08-23 00:00:00 TS 15.5000 -127.500 45 hurdat_epa main 1876 1873 O________OO___ hurdat_epa EP111974 15.5000 -127.500 TS 45 0 15.5000 -127.500 TC 45 15.5000 -127.500 2 45 13 304
1974235N14235 1974 87 EP MM KIRSTEN 1974-08-23 03:00:00 TS 15.8350 -128.032 main 1887 1885 P________PP___ EP111974 15.8374 -128.030 TS 45 0 15.8374 -128.030 TC 45 15.8256 -128.041 2 45 11 302
1974235N14235 1974 87 EP MM KIRSTEN 1974-08-23 06:00:00 TS 16.0969 -128.504 45 hurdat_epa main 1899 1899 O________OP___ hurdat_epa EP111974 16.1000 -128.500 TS 45 0 16.1000 -128.500 TC 45 16.0843 -128.521 2 45 10 297
1974235N14235 1974 87 EP MM KIRSTEN 1974-08-23 09:00:00 TS 16.2851 -128.938 main 1914 1914 P________PP___ EP111974 16.2874 -128.938 TS 45 0 16.2874 -128.938 TC 45 16.2759 -128.940 2 45 8 292
1974235N14235 1974 87 EP MM KIRSTEN 1974-08-23 12:00:00 TS 16.4000 -129.300 45 hurdat_epa main 1937 1937 O________OO___ hurdat_epa EP111974 16.4000 -129.300 TS 45 0 16.4000 -129.300 TC 45 16.4000 -129.300 2 45 7 287
1974235N14235 1974 87 EP MM KIRSTEN 1974-08-23 15:00:00 TS 16.4784 -129.585 main 1953 1953 P________PP___ EP111974 16.4799 -129.573 TS 55 0 16.4799 -129.573 TC 55 16.4724 -129.637 2 50 5 281
1974235N14235 1974 87 EP MM KIRSTEN 1974-08-23 18:00:00 TS 16.4964 -129.823 65 hurdat_epa main 1969 1969 O________OP___ hurdat_epa EP111974 16.5000 -129.800 HU 65 1 16.5000 -129.800 TC 65 16.4821 -129.913 2 55 5 268
1974235N14235 1974 87 EP MM KIRSTEN 1974-08-23 21:00:00 TS 16.4622 -130.091 main 1993 1993 P________PP___ EP111974 16.4650 -130.080 HU 67 1 16.4650 -130.080 TC 67 16.4507 -130.133 2 60 5 258
1974235N14235 1974 87 EP MM KIRSTEN 1974-08-24 00:00:00 TS 16.4000 -130.300 70 hurdat_epa main 2016 2016 O________OO___ hurdat_epa EP111974 16.4000 -130.300 HU 70 1 16.4000 -130.300 TC 70 16.4000 -130.300 4 65 3 248
1974235N14235 1974 87 EP MM KIRSTEN 1974-08-24 03:00:00 TS 16.3495 -130.382 main 2031 2031 P________PP___ EP111974 16.3499 -130.372 HU 72 1 16.3499 -130.372 TC 72 16.3479 -130.421 4 67 2 228
1974235N14235 1974 87 EP MM KIRSTEN 1974-08-24 06:00:00 TS 16.2970 -130.419 75 hurdat_epa main 2031 2031 O________OP___ hurdat_epa EP111974 16.3000 -130.400 HU 75 1 16.3000 -130.400 TC 75 16.2848 -130.495 4 70 2 226
1974235N14235 1974 87 EP MM KIRSTEN 1974-08-24 09:00:00 TS 16.2339 -130.503 main 2047 2047 P________PP___ EP111974 16.2350 -130.493 HU 75 1 16.2350 -130.493 TC 75 16.2292 -130.546 4 72 2 241
1974235N14235 1974 87 EP MM KIRSTEN 1974-08-24 12:00:00 TS 16.2000 -130.600 75 hurdat_epa main 2055 2055 O________OO___ hurdat_epa EP111974 16.2000 -130.600 HU 75 1 16.2000 -130.600 TC 75 16.2000 -130.600 4 75 2 270
1974235N14235 1974 87 EP MM KIRSTEN 1974-08-24 15:00:00 TS 16.2331 -130.700 main 2063 2056 P________PP___ EP111974 16.2350 -130.700 HU 75 1 16.2350 -130.700 TC 75 16.2253 -130.701 4 73 2 296
1974235N14235 1974 87 EP MM KIRSTEN 1974-08-24 18:00:00 TS 16.2955 -130.801 75 hurdat_epa main 2064 2064 O________OP___ hurdat_epa EP111974 16.3000 -130.800 HU 75 1 16.3000 -130.800 TC 75 16.2775 -130.807 4 72 2 300
1974235N14235 1974 87 EP MM KIRSTEN 1974-08-24 21:00:00 TS 16.3482 -130.908 main 2072 2064 P________PP___ EP111974 16.3500 -130.908 HU 75 1 16.3500 -130.908 TC 75 16.3410 -130.910 4 71 2 299
1974235N14235 1974 87 EP MM KIRSTEN 1974-08-25 00:00:00 TS 16.4000 -131.000 75 hurdat_epa main 2073 2073 O________OO___ hurdat_epa EP111974 16.4000 -131.000 HU 75 1 16.4000 -131.000 TC 75 16.4000 -131.000 4 70 2 305
1974235N14235 1974 87 EP MM KIRSTEN 1974-08-25 03:00:00 TS 16.4573 -131.066 main 2073 2073 P________PP___ EP111974 16.4575 -131.058 HU 72 1 16.4575 -131.058 TC 72 16.4565 -131.101 4 66 2 313
1974235N14235 1974 87 EP MM KIRSTEN 1974-08-25 06:00:00 TS 16.5005 -131.117 70 hurdat_epa main 2073 2073 O________OP___ hurdat_epa EP111974 16.5000 -131.100 HU 70 1 16.5000 -131.100 TC 70 16.5024 -131.183 4 62 1 300
1974235N14235 1974 87 EP MM KIRSTEN 1974-08-25 09:00:00 TS 16.5164 -131.177 main 2082 2082 P________PP___ EP111974 16.5150 -131.165 HU 65 1 16.5150 -131.165 TC 65 16.5221 -131.223 4 58 1 270
1974235N14235 1974 87 EP MM KIRSTEN 1974-08-25 12:00:00 TS 16.5000 -131.200 60 hurdat_epa main 2082 2082 O________OO___ hurdat_epa EP111974 16.5000 -131.200 TS 60 0 16.5000 -131.200 TC 60 16.5000 -131.200 2 55 0 0
1974235N14235 1974 87 EP MM KIRSTEN 1974-08-25 15:00:00 TS 16.4740 -131.191 main 2082 2081 P________PP___ EP111974 16.4799 -131.203 TS 55 0 16.4799 -131.203 TC 55 16.4502 -131.143 2 53 2 134
1974235N14235 1974 87 EP MM KIRSTEN 1974-08-25 18:00:00 TS 16.3909 -131.083 50 hurdat_epa main 2081 2072 O________OP___ hurdat_epa EP111974 16.4000 -131.100 TS 50 0 16.4000 -131.100 TC 50 16.3543 -131.016 2 52 4 126
1974235N14235 1974 87 EP MM KIRSTEN 1974-08-25 21:00:00 TS 16.2372 -130.855 main 2079 2062 P________PP___ EP111974 16.2449 -130.868 TS 50 0 16.2449 -130.868 TC 50 16.2062 -130.806 2 51 7 125
1974235N14235 1974 87 EP MM KIRSTEN 1974-08-26 00:00:00 TS 16.0000 -130.500 50 hurdat_epa main 2062 2045 O________OO___ hurdat_epa EP111974 16.0000 -130.500 TS 50 0 16.0000 -130.500 TC 50 16.0000 -130.500 2 50 10 126
1974235N14235 1974 87 EP MM KIRSTEN 1974-08-26 03:00:00 TS 15.6762 -130.039 main 2045 2038 P________PP___ EP111974 15.6651 -130.030 TS 47 0 15.6651 -130.030 TC 47 15.7210 -130.076 2 48 12 126
1974235N14235 1974 87 EP MM KIRSTEN 1974-08-26 06:00:00 TS 15.3177 -129.513 45 hurdat_epa main 2038 2024 O________OP___ hurdat_epa EP111974 15.3000 -129.500 TS 45 0 15.3000 -129.500 TC 45 15.3884 -129.566 2 47 12 124
1974235N14235 1974 87 EP MM KIRSTEN 1974-08-26 09:00:00 TS 14.9953 -128.993 main 2025 2013 P________PP___ EP111974 14.9850 -128.985 TS 45 0 14.9850 -128.985 TC 45 15.0365 -129.023 2 46 12 122
1974235N14235 1974 87 EP MM KIRSTEN 1974-08-26 12:00:00 TS 14.7000 -128.500 45 hurdat_epa main 2014 2002 O________OO___ hurdat_epa EP111974 14.7000 -128.500 TS 45 0 14.7000 -128.500 TC 45 14.7000 -128.500 2 45 10 122
1974235N14235 1974 87 EP MM KIRSTEN 1974-08-26 15:00:00 TS 14.4452 -128.077 main 2011 1997 P________PP___ EP111974 14.4423 -128.085 TS 45 0 14.4423 -128.085 TC 45 14.4567 -128.044 2 45 9 122
1974235N14235 1974 87 EP MM KIRSTEN 1974-08-26 18:00:00 TS 14.2060 -127.684 45 hurdat_epa main 2001 1988 O________OP___ hurdat_epa EP111974 14.2000 -127.700 TS 45 0 14.2000 -127.700 TC 45 14.2298 -127.618 2 45 9 121
1974235N14235 1974 87 EP MM KIRSTEN 1974-08-26 21:00:00 TS 13.9875 -127.293 main 1988 1977 P________PP___ EP111974 13.9874 -127.308 TS 45 0 13.9874 -127.308 TC 45 13.9880 -127.234 2 45 9 124
1974235N14235 1974 87 EP MM KIRSTEN 1974-08-27 00:00:00 TS 13.7000 -126.900 45 hurdat_epa main 1977 1968 O________OO___ hurdat_epa EP111974 13.7000 -126.900 TS 45 0 13.7000 -126.900 TC 45 13.7000 -126.900 2 45 11 132
1974235N14235 1974 87 EP MM KIRSTEN 1974-08-27 03:00:00 TS 13.2185 -126.423 main 1975 1974 P________PP___ EP111974 13.2152 -126.390 TS 42 0 13.2152 -126.390 TC 42 13.2317 -126.559 2 43 13 140
1974235N14235 1974 87 EP MM KIRSTEN 1974-08-27 06:00:00 TS 12.7060 -126.055 40 hurdat_epa main 1990 1982 O________OP___ hurdat_epa EP111974 12.7000 -126.000 TS 40 0 12.7000 -126.000 TC 40 12.7298 -126.277 2 42 11 154
1974235N14235 1974 87 EP MM KIRSTEN 1974-08-27 09:00:00 TS 12.2655 -125.939 main 2007 2007 P________PP___ EP111974 12.2599 -125.903 TS 40 0 12.2599 -125.903 TC 40 12.2880 -126.081 2 41 7 176
1974235N14235 1974 87 EP MM KIRSTEN 1974-08-27 12:00:00 TS 12.0000 -126.000 40 hurdat_epa main 2039 2039 O________OO___ hurdat_epa EP111974 12.0000 -126.000 TS 40 0 12.0000 -126.000 TC 40 12.0000 -126.000 2 40 3 220
1974235N14235 1974 87 EP MM KIRSTEN 1974-08-27 15:00:00 TS 12.0094 -126.160 main 2054 2046 P________PP___ EP111974 12.0175 -126.177 TS 37 0 12.0175 -126.177 TC 37 11.9767 -126.089 2 36 4 296
1974235N14235 1974 87 EP MM KIRSTEN 1974-08-27 18:00:00 TS 12.1825 -126.376 35 hurdat_epa main 2053 2045 O________OP___ hurdat_epa EP111974 12.2000 -126.400 TS 35 0 12.2000 -126.400 TC 35 12.1127 -126.282 2 32 5 313
1974235N14235 1974 87 EP MM KIRSTEN 1974-08-27 21:00:00 TS 12.3765 -126.566 main 2052 2044 P________PP___ EP111974 12.3850 -126.580 TS 35 0 12.3850 -126.580 TC 35 12.3424 -126.510 2 28 5 323
1974235N14235 1974 87 EP MM KIRSTEN 1974-08-28 00:00:00 TS 12.6000 -126.700 35 hurdat_epa main 2044 2029 O________OO___ hurdat_epa EP111974 12.6000 -126.700 TS 35 0 12.6000 -126.700 TC 35 12.6000 -126.700 1 25 5 340
1974235N14235 1974 87 EP MM KIRSTEN 1974-08-28 03:00:00 TS 12.7995 -126.723 main 2029 2014 P________PP___ EP111974 12.8000 -126.723 TS 35 0 12.8000 -126.723 TC 35 12.7977 -126.726 1 26 4 359
1974235N14235 1974 87 EP MM KIRSTEN 1974-08-28 06:00:00 TS 13.0015 -126.702 35 hurdat_epa main 2014 1998 O________OP___ hurdat_epa EP111974 13.0000 -126.700 TS 35 0 13.0000 -126.700 TC 35 13.0074 -126.708 1 27 4 6
1974235N14235 1974 87 EP MM KIRSTEN 1974-08-28 09:00:00 TS 13.2087 -126.685 main 1998 1983 P________PP___ EP111974 13.2075 -126.685 TS 35 0 13.2075 -126.685 TC 35 13.2133 -126.686 1 28 4 0
1974235N14235 1974 87 EP MM KIRSTEN 1974-08-28 12:00:00 TS 13.4000 -126.700 35 hurdat_epa main 1983 1976 O________OO___ hurdat_epa EP111974 13.4000 -126.700 TS 35 0 13.4000 -126.700 TC 35 13.4000 -126.700 1 30 4 346
1974235N14235 1974 87 EP MM KIRSTEN 1974-08-28 15:00:00 TS 13.5631 -126.772 main 1976 1976 P________PP___ EP111974 13.5650 -126.770 TS 35 0 13.5650 -126.770 TC 35 13.5557 -126.782 1 28 4 327
1974235N14235 1974 87 EP MM KIRSTEN 1974-08-28 18:00:00 TS 13.6970 -126.904 35 hurdat_epa main 1977 1977 O________OP___ hurdat_epa EP111974 13.7000 -126.900 TS 35 0 13.7000 -126.900 TC 35 13.6852 -126.922 1 27 4 308
1974235N14235 1974 87 EP MM KIRSTEN 1974-08-28 21:00:00 TS 13.8055 -127.088 main 1986 1986 P________PP___ EP111974 13.8075 -127.085 TS 30 -1 13.8075 -127.085 TC 30 13.7971 -127.101 1 26 4 298
1974235N14235 1974 87 EP MM KIRSTEN 1974-08-29 00:00:00 TS 13.9000 -127.300 25 hurdat_epa main 1996 O________OO___ hurdat_epa EP111974 13.9000 -127.300 TD 25 -1 13.9000 -127.300 TC 25 13.9000 -127.300 1 25 5 295

IBTrACS Databaseについて

本データベースは、米国NOAAが公開する1842年以降の世界の熱帯低気圧のベストトラックデータアーカイブInternational Best Track Archive for Climate Stewardship (IBTrACS)を、ウェブで閲覧しやすい形式に変換したものです。

最終更新日:2021-10-21